createdAt,value
2019-03-21T00:01:36.990Z,10.60
2019-03-21T00:04:13.045Z,10.60
2019-03-21T00:06:45.083Z,10.60
2019-03-21T00:09:18.826Z,10.70
2019-03-21T00:12:08.570Z,10.70
2019-03-21T00:15:26.386Z,10.70
2019-03-21T00:18:19.029Z,10.70
2019-03-21T00:20:51.399Z,10.70
2019-03-21T00:23:24.222Z,10.70
2019-03-21T00:25:57.314Z,10.70
2019-03-21T00:28:29.662Z,10.70
2019-03-21T00:31:02.064Z,10.60
2019-03-21T00:33:34.961Z,10.60
2019-03-21T00:36:07.345Z,10.60
2019-03-21T00:38:39.782Z,10.60
2019-03-21T00:41:12.092Z,10.60
2019-03-21T00:43:44.191Z,10.60
2019-03-21T00:46:16.594Z,10.60
2019-03-21T00:48:49.558Z,10.60
2019-03-21T00:51:21.816Z,10.60
2019-03-21T00:53:53.671Z,10.60
2019-03-21T00:56:26.895Z,10.50
2019-03-21T00:58:59.118Z,10.50
2019-03-21T01:01:31.709Z,10.50
2019-03-21T01:04:03.663Z,10.50
2019-03-21T01:06:36.335Z,10.40
2019-03-21T01:09:11.204Z,10.40
2019-03-21T01:11:44.442Z,10.40
2019-03-21T01:14:16.881Z,10.40
2019-03-21T01:16:50.102Z,10.40
2019-03-21T01:19:23.145Z,10.40
2019-03-21T01:21:56.355Z,10.40
2019-03-21T01:24:28.488Z,10.40
2019-03-21T01:27:02.396Z,10.40
2019-03-21T01:29:35.465Z,10.30
2019-03-21T01:32:07.894Z,10.30
2019-03-21T01:34:40.497Z,10.30
2019-03-21T01:37:13.118Z,10.20
2019-03-21T01:39:45.495Z,10.20
2019-03-21T01:42:17.385Z,10.20
2019-03-21T01:44:50.028Z,10.10
2019-03-21T01:47:22.534Z,10.00
2019-03-21T01:49:54.648Z,9.90
2019-03-21T01:52:26.744Z,9.70
2019-03-21T01:54:58.820Z,9.70
2019-03-21T01:57:30.972Z,9.60
2019-03-21T02:00:03.264Z,9.50
2019-03-21T02:02:35.820Z,9.40
2019-03-21T02:05:08.640Z,9.30
2019-03-21T02:07:40.836Z,9.20
2019-03-21T02:10:15.563Z,9.10
2019-03-21T02:12:47.644Z,9.00
2019-03-21T02:15:20.161Z,8.90
2019-03-21T02:17:52.614Z,8.80
2019-03-21T02:20:24.710Z,8.70
2019-03-21T02:22:56.907Z,8.70
2019-03-21T02:25:30.397Z,8.60
2019-03-21T02:28:02.247Z,8.50
2019-03-21T02:30:36.451Z,8.50
2019-03-21T02:33:17.915Z,8.50
2019-03-21T02:35:49.839Z,8.40
2019-03-21T02:38:22.383Z,8.30
2019-03-21T02:40:54.853Z,8.30
2019-03-21T02:43:27.632Z,8.20
2019-03-21T02:45:59.974Z,8.20
2019-03-21T02:48:32.371Z,8.10
2019-03-21T02:51:05.463Z,8.00
2019-03-21T02:53:38.354Z,8.00
2019-03-21T02:56:12.634Z,8.00
2019-03-21T02:58:44.895Z,7.90
2019-03-21T03:01:17.366Z,7.90
2019-03-21T03:03:50.078Z,7.90
2019-03-21T03:06:22.757Z,7.90
2019-03-21T03:08:55.756Z,7.90
2019-03-21T03:11:27.744Z,7.80
2019-03-21T03:14:00.003Z,7.80
2019-03-21T03:16:32.681Z,7.70
2019-03-21T03:19:05.684Z,7.70
2019-03-21T03:21:38.330Z,7.70
2019-03-21T03:24:11.749Z,7.70
2019-03-21T03:26:44.668Z,7.60
2019-03-21T03:29:17.119Z,7.60
2019-03-21T03:31:49.169Z,7.60
2019-03-21T03:34:21.594Z,7.60
2019-03-21T03:36:54.579Z,7.60
2019-03-21T03:39:26.468Z,7.50
2019-03-21T03:41:59.388Z,7.50
2019-03-21T03:44:32.577Z,7.50
2019-03-21T03:47:06.452Z,7.50
2019-03-21T03:49:39.295Z,7.50
2019-03-21T03:52:13.599Z,7.50
2019-03-21T03:54:46.862Z,7.50
2019-03-21T03:57:19.692Z,7.60
2019-03-21T03:59:52.328Z,7.50
2019-03-21T04:02:25.136Z,7.50
2019-03-21T04:04:59.063Z,7.50
2019-03-21T04:07:31.691Z,7.40
2019-03-21T04:10:05.225Z,7.40
2019-03-21T04:12:38.511Z,7.40
2019-03-21T04:15:11.736Z,7.30
2019-03-21T04:17:44.151Z,7.40
2019-03-21T04:20:17.957Z,7.30
2019-03-21T04:22:50.119Z,7.30
2019-03-21T04:25:27.008Z,7.30
2019-03-21T04:27:58.911Z,7.30
2019-03-21T04:30:31.139Z,7.30
2019-03-21T04:33:03.196Z,7.30
2019-03-21T04:35:35.809Z,7.30
2019-03-21T04:38:07.632Z,7.20
2019-03-21T04:40:40.406Z,7.20
2019-03-21T04:43:12.613Z,7.20
2019-03-21T04:45:44.815Z,7.30
2019-03-21T04:48:18.688Z,7.30
2019-03-21T04:50:50.811Z,7.30
2019-03-21T04:53:23.442Z,7.30
2019-03-21T04:55:55.904Z,7.20
2019-03-21T04:58:29.930Z,7.20
2019-03-21T05:01:02.831Z,7.10
2019-03-21T05:03:35.996Z,7.10
2019-03-21T05:06:08.538Z,7.10
2019-03-21T05:08:40.598Z,7.10
2019-03-21T05:11:12.650Z,7.10
2019-03-21T05:13:45.615Z,7.10
2019-03-21T05:16:18.451Z,7.00
2019-03-21T05:18:50.862Z,7.10
2019-03-21T05:21:23.066Z,7.10
2019-03-21T05:23:55.708Z,7.10
2019-03-21T05:26:28.206Z,7.10
2019-03-21T05:29:00.598Z,7.20
2019-03-21T05:31:34.514Z,7.20
2019-03-21T05:34:07.490Z,7.30
2019-03-21T05:36:39.812Z,7.30
2019-03-21T05:39:12.752Z,7.40
2019-03-21T05:41:45.880Z,7.50
2019-03-21T05:44:31.824Z,7.70
2019-03-21T05:47:13.377Z,7.80
2019-03-21T05:49:45.925Z,8.10
2019-03-21T05:52:18.191Z,8.30
2019-03-21T05:54:50.563Z,8.40
2019-03-21T05:57:23.273Z,8.50
2019-03-21T05:59:55.411Z,8.50
2019-03-21T06:02:28.132Z,8.70
2019-03-21T06:05:00.750Z,8.70
2019-03-21T06:07:52.840Z,8.90
2019-03-21T06:10:24.959Z,9.10
2019-03-21T06:12:57.257Z,9.30
2019-03-21T06:15:32.318Z,9.50
2019-03-21T06:19:05.617Z,9.70
2019-03-21T06:22:15.755Z,10.10
2019-03-21T06:25:50.568Z,10.50
2019-03-21T06:28:23.681Z,11.00
2019-03-21T06:30:55.845Z,11.50
2019-03-21T06:33:28.327Z,11.80
2019-03-21T06:36:00.408Z,12.10
2019-03-21T06:38:32.519Z,12.40
2019-03-21T06:41:04.761Z,12.70
2019-03-21T06:43:37.510Z,13.30
2019-03-21T06:46:09.944Z,13.50
2019-03-21T06:48:42.771Z,13.80
2019-03-21T06:51:15.179Z,14.20
2019-03-21T06:53:47.520Z,14.70
2019-03-21T06:56:19.685Z,14.90
2019-03-21T06:58:52.709Z,15.10
2019-03-21T07:01:25.102Z,15.60
2019-03-21T07:04:06.608Z,16.10
2019-03-21T07:06:32.503Z,16.40
2019-03-21T07:09:08.003Z,16.70
2019-03-21T07:11:40.820Z,16.90
2019-03-21T07:14:13.139Z,16.90
2019-03-21T07:16:45.770Z,17.20
2019-03-21T07:19:18.551Z,17.60
2019-03-21T07:21:51.944Z,18.10
2019-03-21T07:24:24.333Z,18.30
2019-03-21T07:26:56.728Z,18.50
2019-03-21T07:29:29.433Z,18.70
2019-03-21T07:32:02.071Z,18.80
2019-03-21T07:34:34.980Z,18.90
2019-03-21T07:37:07.795Z,19.20
2019-03-21T07:39:40.715Z,19.60
2019-03-21T07:42:12.999Z,19.50
2019-03-21T07:44:45.637Z,19.80
2019-03-21T07:47:18.960Z,20.10
2019-03-21T07:49:51.621Z,20.30
2019-03-21T07:52:24.273Z,20.50
2019-03-21T07:54:56.911Z,20.90
2019-03-21T07:57:29.346Z,21.10
2019-03-21T08:00:02.241Z,21.30
2019-03-21T08:02:34.824Z,21.10
2019-03-21T08:05:07.428Z,21.30
2019-03-21T08:07:39.356Z,21.70
2019-03-21T08:10:12.357Z,21.80
2019-03-21T08:12:44.555Z,22.10
2019-03-21T08:15:16.940Z,22.30
2019-03-21T08:17:49.336Z,22.50
2019-03-21T08:20:22.215Z,22.60
2019-03-21T08:22:54.362Z,22.60
2019-03-21T08:25:26.685Z,22.50
2019-03-21T08:27:58.946Z,22.30
2019-03-21T08:30:40.930Z,22.30
2019-03-21T08:33:13.596Z,22.60
2019-03-21T08:35:45.671Z,22.50
2019-03-21T08:38:17.726Z,22.70
2019-03-21T08:40:50.346Z,22.80
2019-03-21T08:43:23.617Z,23.00
2019-03-21T08:45:55.973Z,23.20
2019-03-21T08:48:28.554Z,23.60
2019-03-21T08:51:08.292Z,24.00
2019-03-21T08:53:35.280Z,24.30
2019-03-21T08:56:08.028Z,24.40
2019-03-21T08:58:40.291Z,23.90
2019-03-21T09:01:13.889Z,23.50
2019-03-21T09:03:46.264Z,23.00
2019-03-21T09:06:18.895Z,22.20
2019-03-21T09:08:51.950Z,21.80
2019-03-21T09:11:25.817Z,21.80
2019-03-21T09:13:57.610Z,21.40
2019-03-21T09:16:31.122Z,20.10
2019-03-21T09:19:03.241Z,19.00
2019-03-21T09:21:35.662Z,18.70
2019-03-21T09:24:08.119Z,18.80
2019-03-21T09:26:40.297Z,18.80
2019-03-21T09:29:12.756Z,18.80
2019-03-21T09:31:44.849Z,19.20
2019-03-21T09:34:16.994Z,19.10
2019-03-21T09:36:49.043Z,18.90
2019-03-21T09:39:21.437Z,18.70
2019-03-21T09:41:53.773Z,18.30
2019-03-21T09:44:30.201Z,18.10
2019-03-21T09:47:04.738Z,18.40
2019-03-21T09:49:36.762Z,18.70
2019-03-21T09:52:08.914Z,19.10
2019-03-21T09:54:41.576Z,19.30
2019-03-21T09:57:13.472Z,20.00
2019-03-21T09:59:46.299Z,20.90
2019-03-21T10:02:19.335Z,21.60
2019-03-21T10:04:52.268Z,21.30
2019-03-21T10:07:25.407Z,21.20
2019-03-21T10:09:57.822Z,21.10
2019-03-21T10:12:30.637Z,21.80
2019-03-21T10:15:02.914Z,22.20
2019-03-21T10:17:34.731Z,21.70
2019-03-21T10:20:07.648Z,22.00
2019-03-21T10:22:40.322Z,22.00
2019-03-21T10:25:12.731Z,20.80
2019-03-21T10:27:45.133Z,19.70
2019-03-21T10:30:35.023Z,19.30
2019-03-21T10:33:09.751Z,19.80
2019-03-21T10:35:42.611Z,20.00
2019-03-21T10:38:14.418Z,19.60
2019-03-21T10:40:47.009Z,19.10
2019-03-21T10:43:19.408Z,19.20
2019-03-21T10:45:51.444Z,19.80
2019-03-21T10:48:24.347Z,20.40
2019-03-21T10:50:58.067Z,20.80
2019-03-21T10:53:30.702Z,20.50
2019-03-21T10:56:03.308Z,20.50
2019-03-21T10:58:36.289Z,20.10
2019-03-21T11:01:08.693Z,19.80
2019-03-21T11:03:41.613Z,19.90
2019-03-21T11:06:14.091Z,20.10
2019-03-21T11:08:46.514Z,20.30
2019-03-21T11:11:18.965Z,20.30
2019-03-21T11:13:51.360Z,20.60
2019-03-21T11:16:24.187Z,20.60
2019-03-21T11:18:57.108Z,20.00
2019-03-21T11:21:30.763Z,19.20
2019-03-21T11:24:03.411Z,19.00
2019-03-21T11:26:36.049Z,18.50
2019-03-21T11:29:08.413Z,17.90
2019-03-21T11:31:40.809Z,17.50
2019-03-21T11:34:13.425Z,17.50
2019-03-21T11:36:46.017Z,17.80
2019-03-21T11:39:18.438Z,17.60
2019-03-21T11:41:50.233Z,17.20
2019-03-21T11:44:22.887Z,17.00
2019-03-21T11:46:54.722Z,16.90
2019-03-21T11:49:27.689Z,16.70
2019-03-21T11:51:59.742Z,16.70
2019-03-21T11:54:32.295Z,16.80
2019-03-21T11:57:04.793Z,16.90
2019-03-21T11:59:50.698Z,16.90
2019-03-21T12:02:11.038Z,17.00
2019-03-21T12:04:44.163Z,17.00
2019-03-21T12:07:16.596Z,16.70
2019-03-21T12:09:48.921Z,16.40
2019-03-21T12:12:21.311Z,16.20
2019-03-21T12:14:53.864Z,16.20
2019-03-21T12:17:26.050Z,16.40
2019-03-21T12:19:57.878Z,16.50
2019-03-21T12:22:30.526Z,16.30
2019-03-21T12:25:03.815Z,16.00
2019-03-21T12:27:36.497Z,15.70
2019-03-21T12:30:10.241Z,15.60
2019-03-21T12:32:42.087Z,15.60
2019-03-21T12:35:14.329Z,15.70
2019-03-21T12:37:46.709Z,15.90
2019-03-21T12:40:19.660Z,15.90
2019-03-21T12:42:52.465Z,15.80
2019-03-21T12:45:25.593Z,15.90
2019-03-21T12:47:57.949Z,16.10
2019-03-21T12:50:30.065Z,16.20
2019-03-21T12:53:02.225Z,16.20
2019-03-21T12:55:34.881Z,16.00
2019-03-21T12:58:07.824Z,15.90
2019-03-21T13:00:44.640Z,15.80
2019-03-21T13:03:17.195Z,15.80
2019-03-21T13:05:49.339Z,15.80
2019-03-21T13:08:33.142Z,15.70
2019-03-21T13:10:56.514Z,15.70
2019-03-21T13:13:28.915Z,15.70
2019-03-21T13:16:01.311Z,15.90
2019-03-21T13:18:33.420Z,15.90
2019-03-21T13:21:05.807Z,16.00
2019-03-21T13:23:38.609Z,16.10
2019-03-21T13:26:12.290Z,16.20
2019-03-21T13:28:45.474Z,16.30
2019-03-21T13:31:17.784Z,16.30
2019-03-21T13:33:50.213Z,16.40
2019-03-21T13:36:22.781Z,16.50
2019-03-21T13:38:55.371Z,16.40
2019-03-21T13:41:27.410Z,16.50
2019-03-21T13:44:00.035Z,16.40
2019-03-21T13:46:32.161Z,16.20
2019-03-21T13:49:06.173Z,16.20
2019-03-21T13:51:38.446Z,16.00
2019-03-21T13:54:11.284Z,16.00
2019-03-21T13:56:44.427Z,16.20
2019-03-21T13:59:16.793Z,16.30
2019-03-21T14:01:49.521Z,16.50
2019-03-21T14:04:21.921Z,16.50
2019-03-21T14:06:54.861Z,16.40
2019-03-21T14:09:27.100Z,16.40
2019-03-21T14:11:59.295Z,16.40
2019-03-21T14:14:32.047Z,16.40
2019-03-21T14:17:04.825Z,16.60
2019-03-21T14:19:37.163Z,16.60
2019-03-21T14:22:09.843Z,16.60
2019-03-21T14:24:42.280Z,16.70
2019-03-21T14:27:14.981Z,16.60
2019-03-21T14:29:47.162Z,16.70
2019-03-21T14:32:19.051Z,16.70
2019-03-21T14:34:51.209Z,16.70
2019-03-21T14:37:23.286Z,16.70
2019-03-21T14:39:56.117Z,16.70
2019-03-21T14:42:28.285Z,16.60
2019-03-21T14:45:00.459Z,16.60
2019-03-21T14:47:36.349Z,16.50
2019-03-21T14:50:08.688Z,16.50
2019-03-21T14:52:41.102Z,16.40
2019-03-21T14:55:14.860Z,16.30
2019-03-21T14:57:47.385Z,16.40
2019-03-21T15:00:20.765Z,16.40
2019-03-21T15:02:53.735Z,16.30
2019-03-21T15:05:25.625Z,16.20
2019-03-21T15:07:57.692Z,16.10
2019-03-21T15:10:30.292Z,16.00
2019-03-21T15:13:02.453Z,16.00
2019-03-21T15:15:34.257Z,16.20
2019-03-21T15:18:06.689Z,16.30
2019-03-21T15:20:39.182Z,16.20
2019-03-21T15:23:12.237Z,16.30
2019-03-21T15:25:45.028Z,16.20
2019-03-21T15:28:18.203Z,16.10
2019-03-21T15:30:50.702Z,16.10
2019-03-21T15:33:22.948Z,16.10
2019-03-21T15:35:54.787Z,16.20
2019-03-21T15:38:27.993Z,16.10
2019-03-21T15:41:00.485Z,16.20
2019-03-21T15:43:32.545Z,16.10
2019-03-21T15:46:05.026Z,16.10
2019-03-21T15:48:37.479Z,16.10
2019-03-21T15:51:10.800Z,16.10
2019-03-21T15:53:53.254Z,16.10
2019-03-21T15:56:17.656Z,16.10
2019-03-21T15:58:50.849Z,16.00
2019-03-21T16:01:22.666Z,15.90
2019-03-21T16:03:56.061Z,15.80
2019-03-21T16:06:29.269Z,15.90
2019-03-21T16:09:02.490Z,15.90
2019-03-21T16:11:36.485Z,15.80
2019-03-21T16:14:09.154Z,15.70
2019-03-21T16:16:41.048Z,15.70
2019-03-21T16:19:13.216Z,15.60
2019-03-21T16:21:45.661Z,15.60
2019-03-21T16:24:18.259Z,15.60
2019-03-21T16:26:50.309Z,15.60
2019-03-21T16:29:22.797Z,15.60
2019-03-21T16:31:55.769Z,15.60
2019-03-21T16:34:28.474Z,15.60
2019-03-21T16:37:00.855Z,15.50
2019-03-21T16:39:33.851Z,15.40
2019-03-21T16:42:05.835Z,15.30
2019-03-21T16:44:38.200Z,15.20
2019-03-21T16:47:10.676Z,15.20
2019-03-21T16:49:43.198Z,15.20
2019-03-21T16:52:15.369Z,15.10
2019-03-21T16:54:47.297Z,15.00
2019-03-21T16:57:19.540Z,15.00
2019-03-21T16:59:52.198Z,14.90
2019-03-21T17:02:24.629Z,14.80
2019-03-21T17:04:56.931Z,14.60
2019-03-21T17:07:29.314Z,14.60
2019-03-21T17:10:01.959Z,14.50
2019-03-21T17:12:35.071Z,14.40
2019-03-21T17:15:09.539Z,14.30
2019-03-21T17:17:42.095Z,14.20
2019-03-21T17:20:15.760Z,14.00
2019-03-21T17:22:48.287Z,13.90
2019-03-21T17:25:20.702Z,13.80
2019-03-21T17:27:54.952Z,13.70
2019-03-21T17:30:28.623Z,13.60
2019-03-21T17:33:01.255Z,13.60
2019-03-21T17:35:33.163Z,13.40
2019-03-21T17:38:05.676Z,13.40
2019-03-21T17:40:38.234Z,13.30
2019-03-21T17:43:10.642Z,13.30
2019-03-21T17:45:42.778Z,13.20
2019-03-21T17:48:15.829Z,13.10
2019-03-21T17:50:48.050Z,13.00
2019-03-21T17:53:20.519Z,12.90
2019-03-21T17:55:52.826Z,12.90
2019-03-21T17:58:25.123Z,12.80
2019-03-21T18:00:57.595Z,12.70
2019-03-21T18:03:29.678Z,12.60
2019-03-21T18:06:02.373Z,12.50
2019-03-21T18:08:35.074Z,12.40
2019-03-21T18:11:07.584Z,12.30
2019-03-21T18:13:39.927Z,12.30
2019-03-21T18:16:12.339Z,12.20
2019-03-21T18:18:44.928Z,12.10
2019-03-21T18:21:18.434Z,12.00
2019-03-21T18:23:50.600Z,12.00
2019-03-21T18:26:22.851Z,12.00
2019-03-21T18:28:54.728Z,11.90
2019-03-21T18:31:27.304Z,11.80
2019-03-21T18:34:00.757Z,11.80
2019-03-21T18:36:33.222Z,11.80
2019-03-21T18:39:08.575Z,11.70
2019-03-21T18:41:41.788Z,11.70
2019-03-21T18:44:14.825Z,11.60
2019-03-21T18:46:47.242Z,11.60
2019-03-21T18:49:19.563Z,11.60
2019-03-21T18:51:51.924Z,11.50
2019-03-21T18:54:24.306Z,11.40
2019-03-21T18:56:57.559Z,11.40
2019-03-21T18:59:30.457Z,11.40
2019-03-21T19:02:02.995Z,11.30
2019-03-21T19:04:35.359Z,11.30
2019-03-21T19:07:09.314Z,11.20
2019-03-21T19:09:43.932Z,11.20
2019-03-21T19:12:15.556Z,11.20
2019-03-21T19:14:48.891Z,11.20
2019-03-21T19:17:22.467Z,11.20
2019-03-21T19:19:54.759Z,11.10
2019-03-21T19:22:27.379Z,11.10
2019-03-21T19:24:59.774Z,11.00
2019-03-21T19:27:32.236Z,11.00
2019-03-21T19:30:05.389Z,10.90
2019-03-21T19:32:37.723Z,10.90
2019-03-21T19:35:10.373Z,10.90
2019-03-21T19:37:42.567Z,10.80
2019-03-21T19:40:15.139Z,10.90
2019-03-21T19:42:48.708Z,10.80
2019-03-21T19:45:21.047Z,10.70
2019-03-21T19:47:53.266Z,10.70
2019-03-21T19:50:25.350Z,10.80
2019-03-21T19:52:57.987Z,10.70
2019-03-21T19:55:31.380Z,10.70
2019-03-21T19:58:04.202Z,10.70
2019-03-21T20:00:36.793Z,10.60
2019-03-21T20:03:09.761Z,10.60
2019-03-21T20:05:42.911Z,10.60
2019-03-21T20:08:15.317Z,10.50
2019-03-21T20:10:47.512Z,10.50
2019-03-21T20:13:19.657Z,10.40
2019-03-21T20:15:51.806Z,10.50
2019-03-21T20:18:23.911Z,10.40
2019-03-21T20:20:56.346Z,10.40
2019-03-21T20:23:29.172Z,10.30
2019-03-21T20:26:02.536Z,10.30
2019-03-21T20:28:35.897Z,10.30
2019-03-21T20:31:08.906Z,10.20
2019-03-21T20:33:41.959Z,10.30
2019-03-21T20:36:14.017Z,10.30
2019-03-21T20:38:45.839Z,10.20
2019-03-21T20:41:18.382Z,10.10
2019-03-21T20:43:51.387Z,10.10
2019-03-21T20:46:24.158Z,10.10
2019-03-21T20:48:53.204Z,10.00
2019-03-21T20:51:26.142Z,10.00
2019-03-21T20:53:58.524Z,10.00
2019-03-21T20:56:31.102Z,10.00
2019-03-21T20:59:04.342Z,9.90
2019-03-21T21:01:37.372Z,9.90
2019-03-21T21:04:11.283Z,9.80
2019-03-21T21:06:43.843Z,9.80
2019-03-21T21:09:16.213Z,9.80
2019-03-21T21:11:48.440Z,9.80
2019-03-21T21:14:20.963Z,9.70
2019-03-21T21:16:54.347Z,9.80
2019-03-21T21:19:27.510Z,9.80
2019-03-21T21:22:00.275Z,9.80
2019-03-21T21:24:33.759Z,9.70
2019-03-21T21:27:06.507Z,9.70
2019-03-21T21:29:39.135Z,9.70
2019-03-21T21:32:11.326Z,9.70
2019-03-21T21:34:44.042Z,9.60
2019-03-21T21:37:16.420Z,9.60
2019-03-21T21:39:48.290Z,9.60
2019-03-21T21:42:20.961Z,9.60
2019-03-21T21:44:53.443Z,9.50
2019-03-21T21:47:26.017Z,9.50
2019-03-21T21:49:58.602Z,9.50
2019-03-21T21:52:41.558Z,9.50
2019-03-21T21:55:05.942Z,9.40
2019-03-21T21:57:38.642Z,9.40
2019-03-21T22:00:13.853Z,9.30
2019-03-21T22:02:46.290Z,9.40
2019-03-21T22:05:18.868Z,9.30
2019-03-21T22:07:51.982Z,9.30
2019-03-21T22:10:24.845Z,9.30
2019-03-21T22:12:56.881Z,9.30
2019-03-21T22:15:29.489Z,9.30
2019-03-21T22:18:02.312Z,9.30
2019-03-21T22:20:34.409Z,9.30
2019-03-21T22:23:06.674Z,9.20
2019-03-21T22:25:39.111Z,9.10
2019-03-21T22:28:11.547Z,9.10
2019-03-21T22:30:44.017Z,9.00
2019-03-21T22:33:16.493Z,8.90
2019-03-21T22:35:49.702Z,8.90
2019-03-21T22:38:22.432Z,8.90
2019-03-21T22:40:54.608Z,8.90
2019-03-21T22:43:28.240Z,8.90
2019-03-21T22:46:01.129Z,8.90
2019-03-21T22:48:33.305Z,8.90
2019-03-21T22:51:05.856Z,8.80
2019-03-21T22:53:37.991Z,8.80
2019-03-21T22:56:10.919Z,8.80
2019-03-21T22:58:42.988Z,8.80
2019-03-21T23:01:15.720Z,8.70
2019-03-21T23:03:48.576Z,8.70
2019-03-21T23:06:21.688Z,8.80
2019-03-21T23:08:53.950Z,8.80
2019-03-21T23:11:26.536Z,8.80
2019-03-21T23:13:58.934Z,8.70
2019-03-21T23:16:31.500Z,8.60
2019-03-21T23:19:04.601Z,8.60
2019-03-21T23:21:36.634Z,8.50
2019-03-21T23:24:08.529Z,8.50
2019-03-21T23:26:52.237Z,8.50
2019-03-21T23:29:15.296Z,8.40
2019-03-21T23:31:47.354Z,8.50
2019-03-21T23:34:20.516Z,8.40
2019-03-21T23:36:53.036Z,8.50
2019-03-21T23:39:25.097Z,8.50
2019-03-21T23:41:57.483Z,8.50
2019-03-21T23:44:30.063Z,8.50
2019-03-21T23:47:02.607Z,8.40
2019-03-21T23:49:35.719Z,8.30
2019-03-21T23:52:08.907Z,8.30
2019-03-21T23:54:41.030Z,8.30
2019-03-21T23:57:13.185Z,8.20
2019-03-21T23:59:45.528Z,8.10
